Time;durP1;ratioP1;P1;durP2;ratioP2;P2;SDS_P1;SDS_P2;PMS_P1;PMS_P2;Temp;Humidity;BMP_temperature;BMP_pressure;BME280_temperature;BME280_humidity;BME280_pressure;Samples;Min_cycle;Max_cycle;Signal;HPM_P1;HPM_P2
2023/09/27 00:02:18;;;;;;;9.00;3.25;;;;;;;;;;6316761;28;20056;-70
2023/09/27 00:05:20;;;;;;;13.82;3.22;;;;;;;;;;6314897;28;20047;-70
2023/09/27 00:08:23;;;;;;;7.28;3.50;;;;;;;;;;6324425;28;20593;-70
2023/09/27 00:11:25;;;;;;;7.35;3.75;;;;;;;;;;6314290;28;20082;-70
2023/09/27 00:14:28;;;;;;;8.35;4.28;;;;;;;;;;6311157;28;20051;-70
2023/09/27 00:17:30;;;;;;;10.98;3.33;;;;;;;;;;6328949;28;20043;-69
2023/09/27 00:20:32;;;;;;;10.70;4.00;;;;;;;;;;6295351;28;20187;-69
2023/09/27 00:23:34;;;;;;;9.00;3.42;;;;;;;;;;6320414;28;20051;-69
2023/09/27 00:26:36;;;;;;;8.68;4.85;;;;;;;;;;6316796;28;20066;-69
2023/09/27 00:29:38;;;;;;;6.55;3.55;;;;;;;;;;6300711;28;20051;-70
2023/09/27 00:32:44;;;;;;;8.73;4.10;;;;;;;;;;6309193;28;20083;-68
2023/09/27 00:35:49;;;;;;;6.38;2.90;;;;;;;;;;6309246;28;20051;-69
2023/09/27 00:38:51;;;;;;;7.78;3.50;;;;;;;;;;6296229;28;20044;-68
2023/09/27 00:41:54;;;;;;;13.70;5.68;;;;;;;;;;6313085;28;20652;-69
2023/09/27 00:44:56;;;;;;;10.95;3.67;;;;;;;;;;6313160;28;20581;-69
2023/09/27 00:47:59;;;;;;;7.85;3.60;;;;;;;;;;6303589;28;20087;-70
2023/09/27 00:51:03;;;;;;;10.27;3.53;;;;;;;;;;6299449;28;20349;-69
2023/09/27 00:54:07;;;;;;;5.65;4.28;;;;;;;;;;6310544;28;20050;-71
2023/09/27 00:57:09;;;;;;;8.52;3.55;;;;;;;;;;6295217;28;20078;-70
2023/09/27 01:00:11;;;;;;;7.30;4.20;;;;;;;;;;6312547;28;20514;-71
2023/09/27 01:03:13;;;;;;;5.72;4.07;;;;;;;;;;6302797;28;20040;-70
2023/09/27 01:06:16;;;;;;;8.75;4.10;;;;;;;;;;6302854;28;20549;-70
2023/09/27 01:09:18;;;;;;;6.60;3.53;;;;;;;;;;6284916;28;20040;-70
2023/09/27 01:12:20;;;;;;;8.00;3.60;;;;;;;;;;6312188;28;20056;-69
2023/09/27 01:15:22;;;;;;;8.63;4.53;;;;;;;;;;6301293;28;20052;-70
2023/09/27 01:18:26;;;;;;;8.65;3.72;;;;;;;;;;6297214;28;20491;-70
2023/09/27 01:21:29;;;;;;;10.20;4.75;;;;;;;;;;6312220;28;20588;-69
2023/09/27 01:24:35;;;;;;;10.82;4.20;;;;;;;;;;6312236;28;20467;-69
2023/09/27 01:27:37;;;;;;;9.10;5.15;;;;;;;;;;6293414;28;20656;-69
2023/09/27 01:30:39;;;;;;;14.20;4.82;;;;;;;;;;6311918;28;20596;-68
2023/09/27 01:33:42;;;;;;;8.13;4.70;;;;;;;;;;6311415;28;20127;-69
2023/09/27 01:36:44;;;;;;;11.13;4.45;;;;;;;;;;6294907;28;20058;-69
2023/09/27 01:39:46;;;;;;;10.63;3.75;;;;;;;;;;6311695;28;20445;-69
2023/09/27 01:42:48;;;;;;;9.55;4.43;;;;;;;;;;6312205;28;20051;-70
2023/09/27 01:45:50;;;;;;;9.35;4.40;;;;;;;;;;6311668;28;20040;-70
2023/09/27 01:48:54;;;;;;;12.25;4.72;;;;;;;;;;6311999;28;20048;-70
2023/09/27 01:51:57;;;;;;;9.10;4.25;;;;;;;;;;6296526;28;20213;-71
2023/09/27 01:54:59;;;;;;;8.70;4.68;;;;;;;;;;6311539;28;20529;-70
2023/09/27 01:58:02;;;;;;;10.30;5.07;;;;;;;;;;6293804;28;20395;-69
2023/09/27 02:01:04;;;;;;;11.98;4.35;;;;;;;;;;6311298;28;20056;-70
2023/09/27 02:04:07;;;;;;;7.93;4.07;;;;;;;;;;6311752;28;20065;-70
2023/09/27 02:07:10;;;;;;;8.00;3.72;;;;;;;;;;6310401;28;20109;-70
2023/09/27 02:10:13;;;;;;;6.95;3.70;;;;;;;;;;6300124;28;20722;-71
2023/09/27 02:13:16;;;;;;;9.60;5.18;;;;;;;;;;6309465;28;20044;-70
2023/09/27 02:16:19;;;;;;;10.18;4.95;;;;;;;;;;6308879;28;20055;-70
2023/09/27 02:19:21;;;;;;;9.20;4.30;;;;;;;;;;6311653;28;20047;-70
2023/09/27 02:22:23;;;;;;;9.70;5.68;;;;;;;;;;6293768;28;20096;-70
2023/09/27 02:25:26;;;;;;;13.07;4.90;;;;;;;;;;6305691;28;20145;-70
2023/09/27 02:28:28;;;;;;;11.48;4.95;;;;;;;;;;6312423;28;20040;-69
2023/09/27 02:31:30;;;;;;;9.60;4.28;;;;;;;;;;6291363;28;20367;-70
2023/09/27 02:34:32;;;;;;;10.57;4.97;;;;;;;;;;6305574;28;20048;-70
2023/09/27 02:37:42;;;;;;;10.05;4.82;;;;;;;;;;6309820;28;20127;-69
2023/09/27 02:40:43;;;;;;;8.55;4.72;;;;;;;;;;6276187;28;20135;-69
2023/09/27 02:43:45;;;;;;;8.00;4.70;;;;;;;;;;6278251;28;20044;-69
2023/09/27 02:46:48;;;;;;;12.00;4.80;;;;;;;;;;6292746;28;20040;-69
2023/09/27 02:49:50;;;;;;;8.65;4.88;;;;;;;;;;6307895;28;20123;-69
2023/09/27 02:52:53;;;;;;;14.95;5.57;;;;;;;;;;6310069;28;20055;-68
2023/09/27 02:55:55;;;;;;;11.15;4.95;;;;;;;;;;6310427;28;20044;-69
2023/09/27 02:58:57;;;;;;;11.48;4.32;;;;;;;;;;6276937;28;20438;-69
2023/09/27 03:01:59;;;;;;;8.18;4.43;;;;;;;;;;6291944;28;20040;-69
2023/09/27 03:05:04;;;;;;;17.80;5.35;;;;;;;;;;6293857;28;20051;-69
2023/09/27 03:08:07;;;;;;;13.02;5.43;;;;;;;;;;6292451;28;20112;-69
2023/09/27 03:11:10;;;;;;;7.57;5.32;;;;;;;;;;6293498;28;20063;-69
2023/09/27 03:14:12;;;;;;;11.38;5.60;;;;;;;;;;6292327;28;20040;-68
2023/09/27 03:17:14;;;;;;;13.20;6.03;;;;;;;;;;6296098;28;20037;-70
2023/09/27 03:20:17;;;;;;;12.25;4.93;;;;;;;;;;6329451;28;20112;-69
2023/09/27 03:23:19;;;;;;;11.10;6.00;;;;;;;;;;6307214;28;20036;-67
2023/09/27 03:26:22;;;;;;;15.57;6.85;;;;;;;;;;6308917;28;20522;-68
2023/09/27 03:29:25;;;;;;;15.52;6.30;;;;;;;;;;6292072;28;20768;-69
2023/09/27 03:32:27;;;;;;;18.13;5.15;;;;;;;;;;6314604;28;20040;-69
2023/09/27 03:35:32;;;;;;;10.40;5.28;;;;;;;;;;6303969;28;20044;-68
2023/09/27 03:38:34;;;;;;;11.23;4.85;;;;;;;;;;6312942;28;20047;-69
2023/09/27 03:41:38;;;;;;;10.75;5.30;;;;;;;;;;6302302;28;20064;-68
2023/09/27 03:44:41;;;;;;;8.48;5.70;;;;;;;;;;6298444;28;20573;-69
2023/09/27 03:47:44;;;;;;;10.40;5.55;;;;;;;;;;6279157;28;20633;-69
2023/09/27 03:50:51;;;;;;;10.40;5.22;;;;;;;;;;6303769;28;20534;-68
2023/09/27 03:53:54;;;;;;;11.48;4.35;;;;;;;;;;6295179;28;20052;-69
2023/09/27 03:56:57;;;;;;;11.77;4.78;;;;;;;;;;6313283;28;20058;-68
2023/09/27 03:59:59;;;;;;;10.38;4.78;;;;;;;;;;6302082;28;20085;-68
2023/09/27 04:03:01;;;;;;;11.13;4.85;;;;;;;;;;6295381;28;20048;-69
2023/09/27 04:06:03;;;;;;;10.02;4.93;;;;;;;;;;6299314;28;20660;-68
2023/09/27 04:09:06;;;;;;;9.20;4.38;;;;;;;;;;6313376;28;20200;-69
2023/09/27 04:12:08;;;;;;;7.95;5.03;;;;;;;;;;6295999;28;20050;-68
2023/09/27 04:15:10;;;;;;;12.07;4.60;;;;;;;;;;6304429;28;20039;-68
2023/09/27 04:18:12;;;;;;;8.15;4.68;;;;;;;;;;6314309;28;20059;-68
2023/09/27 04:21:14;;;;;;;9.05;4.68;;;;;;;;;;6281394;28;20052;-68
2023/09/27 04:24:16;;;;;;;9.85;4.95;;;;;;;;;;6312016;28;20059;-68
2023/09/27 04:27:18;;;;;;;9.82;4.82;;;;;;;;;;6311746;28;20073;-69
2023/09/27 04:30:22;;;;;;;10.50;5.03;;;;;;;;;;6311600;28;20131;-69
2023/09/27 04:33:24;;;;;;;14.43;5.45;;;;;;;;;;6312456;28;20048;-68
2023/09/27 04:36:26;;;;;;;8.73;4.82;;;;;;;;;;6312601;28;20086;-69
2023/09/27 04:39:31;;;;;;;16.38;5.22;;;;;;;;;;6312305;28;20569;-68
2023/09/27 04:42:34;;;;;;;8.10;4.93;;;;;;;;;;6299200;28;20048;-69
2023/09/27 04:45:37;;;;;;;8.23;4.90;;;;;;;;;;6311863;28;20054;-68
2023/09/27 04:48:39;;;;;;;11.02;5.50;;;;;;;;;;6300223;28;20048;-67
2023/09/27 04:51:41;;;;;;;12.05;5.65;;;;;;;;;;6312300;28;20166;-67
2023/09/27 04:54:43;;;;;;;14.85;5.32;;;;;;;;;;6307372;28;20557;-68
2023/09/27 04:57:45;;;;;;;12.93;5.30;;;;;;;;;;6312144;28;20058;-69
2023/09/27 05:00:47;;;;;;;12.32;5.13;;;;;;;;;;6311961;28;20454;-69
2023/09/27 05:03:50;;;;;;;13.55;5.05;;;;;;;;;;6310822;28;20647;-69
2023/09/27 05:06:52;;;;;;;10.43;6.07;;;;;;;;;;6310600;28;20082;-68
2023/09/27 05:09:54;;;;;;;8.82;4.55;;;;;;;;;;6310228;28;20040;-68
2023/09/27 05:12:56;;;;;;;13.63;5.32;;;;;;;;;;6309892;28;20060;-68
2023/09/27 05:15:58;;;;;;;11.88;5.10;;;;;;;;;;6310340;28;20495;-68
2023/09/27 05:19:00;;;;;;;14.18;5.38;;;;;;;;;;6310370;28;20450;-69
2023/09/27 05:22:02;;;;;;;12.15;5.55;;;;;;;;;;6311482;28;20853;-69
2023/09/27 05:25:07;;;;;;;10.50;5.65;;;;;;;;;;6310767;28;20355;-69
2023/09/27 05:28:09;;;;;;;10.32;5.68;;;;;;;;;;6310592;28;20048;-69
2023/09/27 05:31:11;;;;;;;11.98;6.43;;;;;;;;;;6311541;28;20159;-68
2023/09/27 05:34:14;;;;;;;12.85;6.28;;;;;;;;;;6310527;28;20131;-69
2023/09/27 05:37:16;;;;;;;10.23;6.13;;;;;;;;;;6311179;28;20130;-69
2023/09/27 05:40:18;;;;;;;12.25;6.53;;;;;;;;;;6312039;28;20086;-69
2023/09/27 05:43:20;;;;;;;14.05;6.40;;;;;;;;;;6310861;28;20528;-70
2023/09/27 05:46:22;;;;;;;11.32;6.88;;;;;;;;;;6292764;28;20039;-69
2023/09/27 05:49:25;;;;;;;12.05;5.97;;;;;;;;;;6310608;28;20189;-70
2023/09/27 05:52:28;;;;;;;8.57;5.28;;;;;;;;;;6310540;28;20048;-70
2023/09/27 05:55:30;;;;;;;14.65;5.85;;;;;;;;;;6311165;28;20048;-69
2023/09/27 05:58:36;;;;;;;7.45;5.78;;;;;;;;;;6311169;28;20051;-69
2023/09/27 06:01:39;;;;;;;12.55;4.63;;;;;;;;;;6310437;28;20126;-69
2023/09/27 06:04:41;;;;;;;11.68;5.43;;;;;;;;;;6310092;28;20044;-70
2023/09/27 06:07:43;;;;;;;9.60;5.30;;;;;;;;;;6311463;28;20051;-69
2023/09/27 06:10:45;;;;;;;10.88;4.97;;;;;;;;;;6311344;28;20108;-70
2023/09/27 06:13:47;;;;;;;12.18;5.22;;;;;;;;;;6311137;28;20056;-69
2023/09/27 06:16:50;;;;;;;13.40;5.65;;;;;;;;;;6310586;28;20151;-68
2023/09/27 06:19:52;;;;;;;10.10;4.28;;;;;;;;;;6312682;28;20058;-68
2023/09/27 06:22:57;;;;;;;12.50;4.82;;;;;;;;;;6311270;28;20075;-69
2023/09/27 06:25:59;;;;;;;34.70;7.72;;;;;;;;;;6310295;28;20048;-70
2023/09/27 06:29:01;;;;;;;12.10;4.35;;;;;;;;;;6310311;28;20048;-70
2023/09/27 06:32:04;;;;;;;10.05;4.53;;;;;;;;;;6310134;28;20122;-68
2023/09/27 06:35:12;;;;;;;7.53;5.05;;;;;;;;;;6309837;28;20044;-68
2023/09/27 06:38:19;;;;;;;9.60;5.15;;;;;;;;;;6308137;28;20044;-69
2023/09/27 06:41:21;;;;;;;8.45;4.60;;;;;;;;;;6301097;28;20044;-69
2023/09/27 06:44:23;;;;;;;15.35;4.25;;;;;;;;;;6291494;28;20056;-69
2023/09/27 06:47:27;;;;;;;9.68;3.50;;;;;;;;;;6309346;28;20135;-69
2023/09/27 06:50:29;;;;;;;6.95;4.75;;;;;;;;;;6308932;28;20040;-69
2023/09/27 06:53:32;;;;;;;8.93;3.90;;;;;;;;;;6309663;28;20047;-69
2023/09/27 06:56:35;;;;;;;10.00;3.55;;;;;;;;;;6310189;28;20552;-69
2023/09/27 06:59:37;;;;;;;6.55;3.50;;;;;;;;;;6303452;28;20501;-69
2023/09/27 07:02:42;;;;;;;11.18;4.57;;;;;;;;;;6309216;28;20040;-69
2023/09/27 07:05:46;;;;;;;16.20;3.72;;;;;;;;;;6313745;28;20047;-69
2023/09/27 07:08:52;;;;;;;7.38;3.80;;;;;;;;;;6314679;28;20122;-69
2023/09/27 07:11:55;;;;;;;10.73;4.10;;;;;;;;;;6315164;28;20044;-69
2023/09/27 07:14:57;;;;;;;8.52;3.10;;;;;;;;;;6314317;28;20055;-70
2023/09/27 07:17:59;;;;;;;9.20;2.88;;;;;;;;;;6313638;28;20181;-69
2023/09/27 07:21:03;;;;;;;6.95;2.72;;;;;;;;;;6314462;28;20743;-69
2023/09/27 07:24:05;;;;;;;8.93;3.13;;;;;;;;;;6302877;28;20142;-69
2023/09/27 07:27:07;;;;;;;8.65;2.65;;;;;;;;;;6314643;28;20063;-70
2023/09/27 07:30:11;;;;;;;5.93;2.78;;;;;;;;;;6314129;28;20062;-69
2023/09/27 07:33:17;;;;;;;11.75;3.35;;;;;;;;;;6307874;28;20054;-69
2023/09/27 07:36:21;;;;;;;6.75;3.08;;;;;;;;;;6314000;28;20040;-69
2023/09/27 07:39:23;;;;;;;9.52;2.80;;;;;;;;;;6300560;28;20048;-68
2023/09/27 07:42:25;;;;;;;11.02;4.93;;;;;;;;;;6313436;28;20521;-69
2023/09/27 07:45:31;;;;;;;9.55;2.90;;;;;;;;;;6307665;28;20100;-69
2023/09/27 07:48:35;;;;;;;8.10;2.55;;;;;;;;;;6313605;28;20052;-67
2023/09/27 07:51:37;;;;;;;8.40;2.00;;;;;;;;;;6302126;28;20522;-66
2023/09/27 07:54:39;;;;;;;8.85;2.65;;;;;;;;;;6303648;28;20040;-67
2023/09/27 07:57:43;;;;;;;9.00;3.13;;;;;;;;;;6313750;28;20040;-67
2023/09/27 08:00:45;;;;;;;10.20;3.00;;;;;;;;;;6313475;28;20446;-67
2023/09/27 08:04:00;;;;;;;10.52;2.78;;;;;;;;;;6312798;28;20423;-68
2023/09/27 08:07:03;;;;;;;8.20;2.50;;;;;;;;;;6313169;28;20052;-68
2023/09/27 08:10:06;;;;;;;9.82;2.75;;;;;;;;;;6313848;28;20062;-67
2023/09/27 08:13:23;;;;;;;8.05;2.40;;;;;;;;;;6313487;28;20553;-67
2023/09/27 08:16:26;;;;;;;7.20;2.42;;;;;;;;;;6312041;28;20044;-67
2023/09/27 08:19:29;;;;;;;6.78;2.17;;;;;;;;;;6313176;28;20040;-67
2023/09/27 08:22:34;;;;;;;7.28;2.05;;;;;;;;;;6312480;28;20739;-66
2023/09/27 08:25:37;;;;;;;6.70;2.55;;;;;;;;;;6308806;28;20058;-68
2023/09/27 08:28:40;;;;;;;8.85;2.38;;;;;;;;;;6312617;28;20036;-68
2023/09/27 08:31:42;;;;;;;6.45;2.53;;;;;;;;;;6313386;28;20056;-67
2023/09/27 08:34:46;;;;;;;6.60;2.53;;;;;;;;;;6312284;28;20086;-68
2023/09/27 08:37:48;;;;;;;9.88;2.63;;;;;;;;;;6312728;28;20064;-67
2023/09/27 08:40:50;;;;;;;5.70;2.30;;;;;;;;;;6313614;28;20039;-68
2023/09/27 08:43:53;;;;;;;6.63;2.40;;;;;;;;;;6313505;28;20047;-67
2023/09/27 08:46:56;;;;;;;8.68;2.50;;;;;;;;;;6273122;28;20112;-67
2023/09/27 08:49:58;;;;;;;6.43;2.25;;;;;;;;;;6293918;28;20533;-68
2023/09/27 08:53:00;;;;;;;8.98;2.78;;;;;;;;;;6296016;28;20055;-69
2023/09/27 08:56:04;;;;;;;5.47;2.45;;;;;;;;;;6313207;28;20064;-68
2023/09/27 08:59:06;;;;;;;10.43;3.67;;;;;;;;;;6300747;28;20055;-67
2023/09/27 09:02:09;;;;;;;6.78;3.03;;;;;;;;;;6295402;28;20446;-68
2023/09/27 09:05:12;;;;;;;6.97;3.42;;;;;;;;;;6313149;28;20044;-68
2023/09/27 09:08:14;;;;;;;9.77;2.55;;;;;;;;;;6295678;28;20044;-68
2023/09/27 09:11:22;;;;;;;5.35;2.10;;;;;;;;;;6306256;28;20048;-68
2023/09/27 09:14:54;;;;;;;5.22;3.00;;;;;;;;;;6308272;28;20039;-67
2023/09/27 09:18:02;;;;;;;7.03;2.28;;;;;;;;;;6311502;28;20080;-64
2023/09/27 09:21:18;;;;;;;9.13;2.95;;;;;;;;;;6306556;28;20048;-64
2023/09/27 09:24:20;;;;;;;8.05;2.90;;;;;;;;;;6312092;28;20051;-64
2023/09/27 09:27:22;;;;;;;7.07;2.58;;;;;;;;;;6311774;28;20101;-65
2023/09/27 09:30:34;;;;;;;5.75;2.55;;;;;;;;;;6312781;28;20104;-66
2023/09/27 09:33:38;;;;;;;9.63;2.47;;;;;;;;;;6313824;28;20067;-66
2023/09/27 09:36:40;;;;;;;8.65;3.05;;;;;;;;;;6313116;28;20040;-66
2023/09/27 09:39:42;;;;;;;6.82;2.10;;;;;;;;;;6312004;28;20158;-66
2023/09/27 09:42:48;;;;;;;6.30;3.08;;;;;;;;;;6312364;28;20046;-65
2023/09/27 09:45:50;;;;;;;6.25;3.05;;;;;;;;;;6300798;28;20044;-67
2023/09/27 09:48:52;;;;;;;12.75;2.78;;;;;;;;;;6312084;28;20067;-66
2023/09/27 09:51:57;;;;;;;5.50;1.90;;;;;;;;;;6307741;28;20044;-66
2023/09/27 09:55:00;;;;;;;7.47;2.30;;;;;;;;;;6307736;28;20059;-67
2023/09/27 09:58:42;;;;;;;7.55;2.58;;;;;;;;;;6306918;28;20052;-67
2023/09/27 10:01:45;;;;;;;8.02;2.45;;;;;;;;;;6308299;28;20497;-67
2023/09/27 10:04:47;;;;;;;10.15;3.15;;;;;;;;;;6311236;28;20518;-67
2023/09/27 10:07:50;;;;;;;7.13;2.58;;;;;;;;;;6294081;28;20643;-67
2023/09/27 10:10:54;;;;;;;16.95;3.30;;;;;;;;;;6310433;28;20598;-67
2023/09/27 10:13:56;;;;;;;11.88;2.50;;;;;;;;;;6311367;28;20180;-67
2023/09/27 10:16:58;;;;;;;4.82;1.90;;;;;;;;;;6304474;28;20052;-67
2023/09/27 10:20:13;;;;;;;7.22;2.30;;;;;;;;;;6310609;28;20055;-67
2023/09/27 10:23:15;;;;;;;7.90;2.03;;;;;;;;;;6310804;28;20119;-68
2023/09/27 10:26:22;;;;;;;6.85;2.25;;;;;;;;;;6308933;28;20058;-67
2023/09/27 10:29:24;;;;;;;6.88;2.20;;;;;;;;;;6309389;28;20039;-67
2023/09/27 10:32:26;;;;;;;10.18;2.22;;;;;;;;;;6308652;28;20055;-67
2023/09/27 10:35:28;;;;;;;5.47;2.60;;;;;;;;;;6310373;28;20131;-67
2023/09/27 10:38:42;;;;;;;10.95;2.42;;;;;;;;;;6309318;28;20541;-67
2023/09/27 10:41:46;;;;;;;7.97;2.85;;;;;;;;;;6308960;28;20746;-67
2023/09/27 10:44:50;;;;;;;5.15;2.15;;;;;;;;;;6309332;28;20048;-67
2023/09/27 10:47:54;;;;;;;9.68;2.33;;;;;;;;;;6309056;28;20553;-67
2023/09/27 10:50:57;;;;;;;4.10;1.70;;;;;;;;;;6308539;28;20055;-68
2023/09/27 10:53:59;;;;;;;7.80;2.75;;;;;;;;;;6303323;28;20449;-67
2023/09/27 10:57:02;;;;;;;6.13;2.22;;;;;;;;;;6310194;28;20073;-67
2023/09/27 11:00:09;;;;;;;6.93;2.45;;;;;;;;;;6310506;28;20492;-68
2023/09/27 11:03:18;;;;;;;6.93;2.72;;;;;;;;;;6310562;28;20116;-67
2023/09/27 11:06:20;;;;;;;7.50;2.28;;;;;;;;;;6310754;28;20095;-67
2023/09/27 11:09:23;;;;;;;5.85;3.08;;;;;;;;;;6308337;28;20043;-68
2023/09/27 11:12:25;;;;;;;7.60;2.88;;;;;;;;;;6310823;28;20054;-67
2023/09/27 11:15:28;;;;;;;5.47;2.42;;;;;;;;;;6310631;28;20135;-68
2023/09/27 11:18:36;;;;;;;11.07;2.65;;;;;;;;;;6310937;28;20094;-67
2023/09/27 11:21:38;;;;;;;8.55;2.53;;;;;;;;;;6310943;28;20164;-69
2023/09/27 11:24:40;;;;;;;7.53;2.75;;;;;;;;;;6310415;28;20458;-68
2023/09/27 11:27:43;;;;;;;5.57;2.50;;;;;;;;;;6310600;28;20121;-68
2023/09/27 11:30:45;;;;;;;6.63;2.20;;;;;;;;;;6298045;28;20187;-68
2023/09/27 11:33:47;;;;;;;10.23;3.30;;;;;;;;;;6310744;28;20055;-68
2023/09/27 11:36:51;;;;;;;7.90;2.63;;;;;;;;;;6306644;28;20036;-67
2023/09/27 11:39:54;;;;;;;8.82;2.33;;;;;;;;;;6306234;28;20430;-68
2023/09/27 11:42:57;;;;;;;7.70;3.05;;;;;;;;;;6310879;28;20185;-67
2023/09/27 11:46:00;;;;;;;6.97;2.53;;;;;;;;;;6310322;28;20064;-67
2023/09/27 11:49:09;;;;;;;7.07;2.97;;;;;;;;;;6310464;28;20074;-67
2023/09/27 11:52:11;;;;;;;14.95;3.25;;;;;;;;;;6314217;28;20048;-67
2023/09/27 11:55:14;;;;;;;7.25;2.45;;;;;;;;;;6315182;28;20051;-67
2023/09/27 11:58:17;;;;;;;8.32;3.13;;;;;;;;;;6314184;28;20044;-67
2023/09/27 12:01:19;;;;;;;11.75;3.15;;;;;;;;;;6314686;28;20044;-67
2023/09/27 12:04:21;;;;;;;12.63;3.22;;;;;;;;;;6314309;28;20056;-67
2023/09/27 12:07:24;;;;;;;11.90;3.40;;;;;;;;;;6314492;28;20085;-68
2023/09/27 12:10:26;;;;;;;10.35;3.60;;;;;;;;;;6306021;28;20047;-67
2023/09/27 12:13:28;;;;;;;10.77;2.75;;;;;;;;;;6314354;28;20043;-67
2023/09/27 12:16:30;;;;;;;8.95;3.53;;;;;;;;;;6314597;28;20040;-67
2023/09/27 12:19:34;;;;;;;11.18;3.22;;;;;;;;;;6304968;28;20513;-67
2023/09/27 12:22:37;;;;;;;8.20;2.92;;;;;;;;;;6314240;28;20054;-67
2023/09/27 12:25:39;;;;;;;11.57;3.30;;;;;;;;;;6314052;28;20124;-67
2023/09/27 12:28:59;;;;;;;9.02;3.92;;;;;;;;;;6314002;28;20032;-67
2023/09/27 12:32:01;;;;;;;6.20;2.70;;;;;;;;;;6314020;28;20157;-67
2023/09/27 12:35:03;;;;;;;16.45;3.53;;;;;;;;;;6296422;28;20112;-67
2023/09/27 12:38:07;;;;;;;9.32;3.05;;;;;;;;;;6314070;28;20055;-67
2023/09/27 12:41:09;;;;;;;11.20;3.65;;;;;;;;;;6301053;28;20052;-67
2023/09/27 12:44:12;;;;;;;9.95;3.20;;;;;;;;;;6313786;28;20048;-68
2023/09/27 12:47:23;;;;;;;11.02;3.47;;;;;;;;;;6309574;28;20114;-67
2023/09/27 12:50:28;;;;;;;11.68;3.20;;;;;;;;;;6313194;28;20050;-68
2023/09/27 12:53:30;;;;;;;8.75;3.63;;;;;;;;;;6313209;28;20047;-67
2023/09/27 12:56:32;;;;;;;8.57;3.08;;;;;;;;;;6313683;28;20067;-68
2023/09/27 12:59:34;;;;;;;10.32;3.22;;;;;;;;;;6313177;28;20184;-67
2023/09/27 13:02:37;;;;;;;9.75;3.55;;;;;;;;;;6313041;28;20073;-67
2023/09/27 13:05:57;;;;;;;8.63;4.60;;;;;;;;;;6313005;28;20063;-67
2023/09/27 13:08:59;;;;;;;11.90;3.33;;;;;;;;;;6312782;28;20589;-67
2023/09/27 13:12:19;;;;;;;10.48;2.80;;;;;;;;;;6312808;28;20127;-67
2023/09/27 13:15:21;;;;;;;9.07;3.22;;;;;;;;;;6313281;28;20051;-68
2023/09/27 13:18:23;;;;;;;6.47;2.42;;;;;;;;;;6312592;28;20048;-66
2023/09/27 13:21:26;;;;;;;9.00;3.53;;;;;;;;;;6296622;28;20617;-66
2023/09/27 13:24:28;;;;;;;8.65;3.10;;;;;;;;;;6312793;28;20044;-67
2023/09/27 13:27:30;;;;;;;10.65;3.70;;;;;;;;;;6313496;28;20518;-67
2023/09/27 13:30:33;;;;;;;7.15;3.13;;;;;;;;;;6313114;28;20562;-67
2023/09/27 13:33:37;;;;;;;;;;;;;;;;;;6313312;28;20048;-67
2023/09/27 13:36:40;;;;;;;13.13;3.05;;;;;;;;;;6312624;28;19946;-67
2023/09/27 13:39:59;;;;;;;7.47;4.20;;;;;;;;;;6308049;28;20532;-67
2023/09/27 13:43:02;;;;;;;6.80;3.40;;;;;;;;;;6312272;28;20142;-67
2023/09/27 13:46:05;;;;;;;5.82;3.80;;;;;;;;;;6312191;28;20097;-67
2023/09/27 13:49:07;;;;;;;9.23;3.53;;;;;;;;;;6312773;28;20048;-67
2023/09/27 13:52:09;;;;;;;11.43;3.33;;;;;;;;;;6312630;28;20048;-67
2023/09/27 13:55:11;;;;;;;8.13;3.13;;;;;;;;;;6296768;28;20601;-66
2023/09/27 13:58:13;;;;;;;7.88;3.00;;;;;;;;;;6311910;28;20831;-67
2023/09/27 14:01:15;;;;;;;6.15;3.65;;;;;;;;;;6311365;28;20056;-67
2023/09/27 14:04:17;;;;;;;7.70;2.83;;;;;;;;;;6310614;28;20063;-66
2023/09/27 14:07:20;;;;;;;8.68;3.03;;;;;;;;;;6307559;28;20040;-67
2023/09/27 14:10:23;;;;;;;10.30;3.15;;;;;;;;;;6307662;28;20079;-67
2023/09/27 14:13:43;;;;;;;7.57;4.07;;;;;;;;;;6301796;28;20045;-66
2023/09/27 14:16:47;;;;;;;8.68;3.70;;;;;;;;;;6306783;28;20501;-67
2023/09/27 14:19:49;;;;;;;8.15;3.28;;;;;;;;;;6307734;28;20044;-67
2023/09/27 14:22:52;;;;;;;5.55;2.75;;;;;;;;;;6309052;28;20055;-67
2023/09/27 14:25:54;;;;;;;7.47;3.05;;;;;;;;;;6303798;28;20039;-69
2023/09/27 14:28:56;;;;;;;10.13;2.88;;;;;;;;;;6309522;28;20074;-67
2023/09/27 14:31:58;;;;;;;8.77;3.10;;;;;;;;;;6310130;28;20121;-66
2023/09/27 14:35:00;;;;;;;7.38;3.45;;;;;;;;;;6309523;28;20907;-66
2023/09/27 14:38:03;;;;;;;8.45;3.78;;;;;;;;;;6305170;28;20051;-65
2023/09/27 14:41:11;;;;;;;10.80;3.58;;;;;;;;;;6310146;28;20672;-66
2023/09/27 14:44:13;;;;;;;7.10;3.30;;;;;;;;;;6314760;28;20040;-66
2023/09/27 14:47:15;;;;;;;9.60;3.13;;;;;;;;;;6303451;28;20753;-66
2023/09/27 14:50:17;;;;;;;8.60;3.75;;;;;;;;;;6308460;28;20492;-66
2023/09/27 14:53:19;;;;;;;4.50;2.53;;;;;;;;;;6306051;28;20051;-67
2023/09/27 14:56:21;;;;;;;5.75;2.53;;;;;;;;;;6301569;28;20088;-67
2023/09/27 14:59:23;;;;;;;8.40;3.10;;;;;;;;;;6303854;28;20548;-67
2023/09/27 15:02:26;;;;;;;8.68;2.90;;;;;;;;;;6306199;28;20150;-66
2023/09/27 15:05:28;;;;;;;8.50;4.68;;;;;;;;;;6307497;28;20938;-66
2023/09/27 15:08:30;;;;;;;8.82;3.45;;;;;;;;;;6304491;28;20055;-68
2023/09/27 15:11:33;;;;;;;7.53;3.20;;;;;;;;;;6312520;28;20051;-68
2023/09/27 15:14:35;;;;;;;5.95;3.35;;;;;;;;;;6309000;28;20051;-68
2023/09/27 15:17:41;;;;;;;9.38;3.60;;;;;;;;;;6293264;28;20181;-67
2023/09/27 15:20:43;;;;;;;14.85;3.25;;;;;;;;;;6306862;28;20036;-66
2023/09/27 15:23:45;;;;;;;9.88;3.97;;;;;;;;;;6308000;28;20043;-67
2023/09/27 15:26:48;;;;;;;10.77;3.03;;;;;;;;;;6313909;28;20052;-66
2023/09/27 15:29:50;;;;;;;9.20;3.75;;;;;;;;;;6315629;28;20521;-66
2023/09/27 15:32:52;;;;;;;7.10;3.78;;;;;;;;;;6309042;28;20510;-66
2023/09/27 15:35:56;;;;;;;6.22;2.67;;;;;;;;;;6303754;28;20055;-66
2023/09/27 15:39:17;;;;;;;4.95;2.58;;;;;;;;;;6308287;28;20070;-66
2023/09/27 15:42:19;;;;;;;7.28;3.35;;;;;;;;;;6314688;28;20603;-66
2023/09/27 15:45:23;;;;;;;7.80;2.65;;;;;;;;;;6314333;28;20129;-67
2023/09/27 15:48:30;;;;;;;11.88;3.05;;;;;;;;;;6315144;28;20055;-67
2023/09/27 15:51:32;;;;;;;10.10;3.50;;;;;;;;;;6315302;28;20044;-68
2023/09/27 15:54:34;;;;;;;6.38;3.40;;;;;;;;;;6296338;28;20052;-68
2023/09/27 15:57:39;;;;;;;6.95;3.53;;;;;;;;;;6314835;28;20588;-68
2023/09/27 16:00:43;;;;;;;7.25;3.00;;;;;;;;;;6314842;28;20469;-68
2023/09/27 16:03:44;;;;;;;8.45;2.90;;;;;;;;;;6313308;28;20069;-68
2023/09/27 16:07:04;;;;;;;7.28;3.08;;;;;;;;;;6312013;28;20414;-69
2023/09/27 16:10:08;;;;;;;9.35;3.35;;;;;;;;;;6315117;28;20048;-69
2023/09/27 16:13:12;;;;;;;;;;;;;;;;;;6315230;28;20171;-68
2023/09/27 16:16:14;;;;;;;6.00;2.95;;;;;;;;;;6298136;28;19931;-66
2023/09/27 16:19:16;;;;;;;12.02;3.47;;;;;;;;;;6295399;28;20040;-67
2023/09/27 16:22:18;;;;;;;7.28;3.25;;;;;;;;;;6311664;28;20055;-67
2023/09/27 16:25:20;;;;;;;8.50;3.88;;;;;;;;;;6298004;28;20048;-67
2023/09/27 16:28:22;;;;;;;7.65;3.05;;;;;;;;;;6312557;28;20128;-67
2023/09/27 16:31:32;;;;;;;10.48;3.88;;;;;;;;;;6312681;28;20040;-67
2023/09/27 16:34:34;;;;;;;6.55;2.83;;;;;;;;;;6311529;28;20546;-67
2023/09/27 16:37:54;;;;;;;6.20;4.43;;;;;;;;;;6311543;28;20651;-68
2023/09/27 16:40:56;;;;;;;7.03;3.00;;;;;;;;;;6311787;28;20052;-67
2023/09/27 16:44:01;;;;;;;7.70;5.10;;;;;;;;;;6311339;28;20525;-67
2023/09/27 16:47:04;;;;;;;10.40;4.28;;;;;;;;;;6311140;28;20044;-66
2023/09/27 16:50:06;;;;;;;7.25;3.05;;;;;;;;;;6311961;28;20068;-66
2023/09/27 16:53:08;;;;;;;8.07;3.28;;;;;;;;;;6312696;28;20080;-66
2023/09/27 16:56:10;;;;;;;6.63;3.25;;;;;;;;;;6297155;28;20044;-66
2023/09/27 16:59:13;;;;;;;6.18;3.45;;;;;;;;;;6313290;28;20059;-66
2023/09/27 17:02:18;;;;;;;7.00;4.30;;;;;;;;;;6313501;28;20162;-65
2023/09/27 17:05:20;;;;;;;6.03;3.78;;;;;;;;;;6313460;28;20063;-66
2023/09/27 17:08:23;;;;;;;8.68;3.85;;;;;;;;;;6313582;28;20093;-65
2023/09/27 17:11:27;;;;;;;7.80;3.83;;;;;;;;;;6313634;28;20040;-67
2023/09/27 17:14:29;;;;;;;8.10;4.10;;;;;;;;;;6309763;28;20605;-67
2023/09/27 17:17:31;;;;;;;13.50;6.53;;;;;;;;;;6313047;28;20043;-67
2023/09/27 17:20:33;;;;;;;15.20;3.28;;;;;;;;;;6312414;28;20047;-68
2023/09/27 17:23:35;;;;;;;6.72;3.53;;;;;;;;;;6308445;28;20565;-67
2023/09/27 17:26:55;;;;;;;9.60;3.88;;;;;;;;;;6293790;28;20036;-67
2023/09/27 17:29:58;;;;;;;6.75;3.53;;;;;;;;;;6315416;28;20058;-66
2023/09/27 17:33:01;;;;;;;6.50;4.10;;;;;;;;;;6311013;28;20047;-67
2023/09/27 17:36:04;;;;;;;7.28;3.08;;;;;;;;;;6308855;28;20434;-67
2023/09/27 17:39:06;;;;;;;6.82;3.20;;;;;;;;;;6309086;28;20559;-66
2023/09/27 17:42:09;;;;;;;8.27;3.85;;;;;;;;;;6310770;28;20040;-67
2023/09/27 17:45:11;;;;;;;7.70;5.88;;;;;;;;;;6311833;28;20528;-66
2023/09/27 17:48:20;;;;;;;9.63;3.78;;;;;;;;;;6311109;28;20151;-66
2023/09/27 17:51:23;;;;;;;8.80;3.80;;;;;;;;;;6314411;28;20055;-67
2023/09/27 17:54:25;;;;;;;5.88;2.90;;;;;;;;;;6309203;28;20048;-67
2023/09/27 17:57:27;;;;;;;6.03;3.75;;;;;;;;;;6325168;27;20078;-67
2023/09/27 18:00:29;;;;;;;6.47;3.08;;;;;;;;;;6306388;28;20063;-68
2023/09/27 18:03:31;;;;;;;8.45;3.75;;;;;;;;;;6308358;28;20040;-68
2023/09/27 18:06:33;;;;;;;8.50;3.90;;;;;;;;;;6307229;28;20181;-66
2023/09/27 18:09:36;;;;;;;7.95;3.45;;;;;;;;;;6307197;28;20040;-67
2023/09/27 18:12:38;;;;;;;8.95;3.38;;;;;;;;;;6307723;28;20056;-67
2023/09/27 18:15:40;;;;;;;7.75;2.88;;;;;;;;;;6305974;28;20550;-69